PWSweather.com
Personal Weather Stations
Station Observations
KCAPARAD1
Greenthumb Ln Near Elliott Rd, Paradise, CA 95969

Greenthumb Ln Near Elliott RdParadise, CA 95969

Lat: 39.759, Lon: -121.612

Elevation: 1824

Station Type: Davis Vantage Pro2 Plus

http://paradiseweatherstation.org

Latest ConditionsUpdated 1:00:01 PM PDT Friday, Aug 18, 2017
Currently Today's Max Today's Min Today's Average
Temperature 89.1°F31.7°C 90.7°F32.6°C 64.4°F18.0°C 72.3°F22.4°C
Dew Point 62.4°F16.9°C 64.5°F18.1°C 57.7°F14.3°C 60.6°F15.9°C
Winds Calm Calm 1.2 mph S1.9 kmh S - 0.1 mph 0.2 kmh
Wind Gusts 1.2 mph1.9 kmh 3.5 mph5.6 kmh - -
Humidity 41% 80% 41% 69%
Pressure 29.90 in1012.5 mb 29.94 in1013.9 mb 29.89 in1012.2 mb -
Hour Temp Dew Point Humidity Winds Wind Gusts Pressure Precip Precip Rate Daily Precip Total
01:00 PM 89.1°F31.7°C 62.4°F16.9°C 41% Calm Calm 1.2 mph1.9 kmh 29.90 in1012.5 mb - 0.00 in0.0 mm 0.00 in0.0 mm
12:55 PM 89.5°F31.9°C 64.1°F17.8°C 43% Calm Calm 2.3 mph3.7 kmh 29.90 in1012.5 mb - 0.00 in0.0 mm 0.00 in0.0 mm
12:50 PM 89.9°F32.2°C 64.5°F18.1°C 43% Calm Calm 2.3 mph3.7 kmh 29.90 in1012.5 mb - 0.00 in0.0 mm 0.00 in0.0 mm
12:45 PM 89.1°F31.7°C 62.4°F16.9°C 41% 1.2 mph S1.9 kmh S 3.5 mph5.6 kmh 29.90 in1012.5 mb - 0.00 in0.0 mm 0.00 in0.0 mm
12:40 PM 90.7°F32.6°C 64.4°F18.0°C 42% Calm Calm 1.2 mph1.9 kmh 29.90 in1012.5 mb - 0.00 in0.0 mm 0.00 in0.0 mm
12:35 PM 89.4°F31.9°C 63.9°F17.7°C 43% Calm Calm 1.2 mph1.9 kmh 29.90 in1012.5 mb - 0.00 in0.0 mm 0.00 in0.0 mm
12:30 PM 88.2°F31.2°C 62.2°F16.8°C 42% Calm Calm 2.3 mph3.7 kmh 29.91 in1012.9 mb - 0.00 in0.0 mm 0.00 in0.0 mm
12:25 PM 87.8°F31.0°C 62.5°F16.9°C 43% Calm Calm 1.2 mph1.9 kmh 29.91 in1012.9 mb - 0.00 in0.0 mm 0.00 in0.0 mm
12:20 PM 88.5°F31.4°C 63.1°F17.3°C 43% 1.2 mph S1.9 kmh S 3.5 mph5.6 kmh 29.91 in1012.9 mb - 0.00 in0.0 mm 0.00 in0.0 mm
12:15 PM 87.7°F30.9°C 63.1°F17.3°C 44% Calm Calm 1.2 mph1.9 kmh 29.91 in1012.9 mb - 0.00 in0.0 mm 0.00 in0.0 mm
12:10 PM 87.4°F30.8°C 62.2°F16.8°C 43% Calm Calm 2.3 mph3.7 kmh 29.91 in1012.9 mb - 0.00 in0.0 mm 0.00 in0.0 mm
12:00 PM 86.8°F30.4°C 61.6°F16.4°C 43% 1.2 mph SSE1.9 kmh SSE 3.5 mph5.6 kmh 29.91 in1012.9 mb - 0.00 in0.0 mm 0.00 in0.0 mm
11:55 AM 87.1°F30.6°C 62.5°F16.9°C 44% 1.2 mph S1.9 kmh S 3.5 mph5.6 kmh 29.92 in1013.2 mb - 0.00 in0.0 mm 0.00 in0.0 mm
11:50 AM 86.5°F30.3°C 63.3°F17.4°C 46% 1.2 mph SE1.9 kmh SE 3.5 mph5.6 kmh 29.92 in1013.2 mb - 0.00 in0.0 mm 0.00 in0.0 mm
11:45 AM 86.0°F30.0°C 61.5°F16.4°C 44% Calm Calm 2.3 mph3.7 kmh 29.92 in1013.2 mb - 0.00 in0.0 mm 0.00 in0.0 mm
11:40 AM 86.1°F30.1°C 62.2°F16.8°C 45% 1.2 mph S1.9 kmh S 2.3 mph3.7 kmh 29.92 in1013.2 mb - 0.00 in0.0 mm 0.00 in0.0 mm
11:35 AM 86.0°F30.0°C 62.8°F17.1°C 46% Calm Calm -- 29.92 in1013.2 mb - 0.00 in0.0 mm 0.00 in0.0 mm
11:30 AM 85.3°F29.6°C 62.8°F17.1°C 47% Calm Calm 2.3 mph3.7 kmh 29.92 in1013.2 mb - 0.00 in0.0 mm 0.00 in0.0 mm
11:25 AM 85.5°F29.7°C 62.3°F16.8°C 46% Calm Calm 1.2 mph1.9 kmh 29.92 in1013.2 mb - 0.00 in0.0 mm 0.00 in0.0 mm
11:20 AM 85.4°F29.7°C 62.3°F16.8°C 46% Calm Calm 2.3 mph3.7 kmh 29.93 in1013.5 mb - 0.00 in0.0 mm 0.00 in0.0 mm
11:15 AM 85.2°F29.6°C 62.7°F17.1°C 47% Calm Calm 1.2 mph1.9 kmh 29.92 in1013.2 mb - 0.00 in0.0 mm 0.00 in0.0 mm
11:10 AM 84.4°F29.1°C 63.2°F17.3°C 49% Calm Calm -- 29.93 in1013.5 mb - 0.00 in0.0 mm 0.00 in0.0 mm
11:00 AM 83.9°F28.8°C 62.1°F16.7°C 48% Calm Calm 1.2 mph1.9 kmh 29.93 in1013.5 mb - 0.00 in0.0 mm 0.00 in0.0 mm
10:55 AM 83.9°F28.8°C 63.3°F17.4°C 50% 1.2 mph S1.9 kmh S 1.2 mph1.9 kmh 29.93 in1013.5 mb - 0.00 in0.0 mm 0.00 in0.0 mm
10:50 AM 83.4°F28.6°C 62.2°F16.8°C 49% 1.2 mph S1.9 kmh S 3.5 mph5.6 kmh 29.93 in1013.5 mb - 0.00 in0.0 mm 0.00 in0.0 mm
10:45 AM 83.1°F28.4°C 62.0°F16.7°C 49% Calm Calm -- 29.93 in1013.5 mb - 0.00 in0.0 mm 0.00 in0.0 mm
10:40 AM 83.4°F28.6°C 62.8°F17.1°C 50% Calm Calm -- 29.93 in1013.5 mb - 0.00 in0.0 mm 0.00 in0.0 mm
10:35 AM 83.4°F28.6°C 62.8°F17.1°C 50% Calm Calm -- 29.93 in1013.5 mb - 0.00 in0.0 mm 0.00 in0.0 mm
10:30 AM 82.6°F28.1°C 62.1°F16.7°C 50% Calm Calm -- 29.93 in1013.5 mb - 0.00 in0.0 mm 0.00 in0.0 mm
10:25 AM 82.5°F28.1°C 60.8°F16.0°C 48% Calm Calm -- 29.93 in1013.5 mb - 0.00 in0.0 mm 0.00 in0.0 mm
10:20 AM 82.4°F28.0°C 61.9°F16.6°C 50% Calm Calm -- 29.93 in1013.5 mb - 0.00 in0.0 mm 0.00 in0.0 mm
10:15 AM 81.7°F27.6°C 61.8°F16.6°C 51% Calm Calm -- 29.93 in1013.5 mb - 0.00 in0.0 mm 0.00 in0.0 mm
10:10 AM 81.1°F27.3°C 61.2°F16.2°C 51% Calm Calm -- 29.93 in1013.5 mb - 0.00 in0.0 mm 0.00 in0.0 mm
10:00 AM 80.1°F26.7°C 60.3°F15.7°C 51% Calm Calm -- 29.93 in1013.5 mb - 0.00 in0.0 mm 0.00 in0.0 mm
09:55 AM 79.8°F26.6°C 60.6°F15.9°C 52% Calm Calm -- 29.94 in1013.9 mb - 0.00 in0.0 mm 0.00 in0.0 mm
09:50 AM 79.4°F26.3°C 59.7°F15.4°C 51% Calm Calm -- 29.94 in1013.9 mb - 0.00 in0.0 mm 0.00 in0.0 mm
09:45 AM 79.1°F26.2°C 60.0°F15.6°C 52% Calm Calm -- 29.93 in1013.5 mb - 0.00 in0.0 mm 0.00 in0.0 mm
09:40 AM 78.7°F25.9°C 60.1°F15.6°C 53% Calm Calm -- 29.94 in1013.9 mb - 0.00 in0.0 mm 0.00 in0.0 mm
09:35 AM 78.3°F25.7°C 61.3°F16.3°C 56% Calm Calm -- 29.93 in1013.5 mb - 0.00 in0.0 mm 0.00 in0.0 mm
09:30 AM 77.7°F25.4°C 60.8°F16.0°C 56% Calm Calm -- 29.93 in1013.5 mb - 0.00 in0.0 mm 0.00 in0.0 mm
09:25 AM 77.2°F25.1°C 60.8°F16.0°C 57% Calm Calm -- 29.93 in1013.5 mb - 0.00 in0.0 mm 0.00 in0.0 mm
09:20 AM 76.8°F24.9°C 60.9°F16.1°C 58% Calm Calm -- 29.93 in1013.5 mb - 0.00 in0.0 mm 0.00 in0.0 mm
09:15 AM 76.4°F24.7°C 61.0°F16.1°C 59% Calm Calm -- 29.93 in1013.5 mb - 0.00 in0.0 mm 0.00 in0.0 mm
09:10 AM 75.7°F24.3°C 61.7°F16.5°C 62% Calm Calm -- 29.93 in1013.5 mb - 0.00 in0.0 mm 0.00 in0.0 mm
09:00 AM 74.3°F23.5°C 62.2°F16.8°C 66% Calm Calm -- 29.93 in1013.5 mb - 0.00 in0.0 mm 0.00 in0.0 mm
08:55 AM 73.3°F22.9°C 62.1°F16.7°C 68% Calm Calm -- 29.93 in1013.5 mb - 0.00 in0.0 mm 0.00 in0.0 mm
08:50 AM 72.4°F22.4°C 62.5°F16.9°C 71% Calm Calm -- 29.93 in1013.5 mb - 0.00 in0.0 mm 0.00 in0.0 mm
08:45 AM 71.5°F21.9°C 62.8°F17.1°C 74% Calm Calm -- 29.94 in1013.9 mb - 0.00 in0.0 mm 0.00 in0.0 mm
08:40 AM 70.6°F21.4°C 62.7°F17.1°C 76% Calm Calm -- 29.94 in1013.9 mb - 0.00 in0.0 mm 0.00 in0.0 mm
08:35 AM 70.0°F21.1°C 62.5°F16.9°C 77% Calm Calm -- 29.94 in1013.9 mb - 0.00 in0.0 mm 0.00 in0.0 mm
08:30 AM 69.4°F20.8°C 61.9°F16.6°C 77% Calm Calm -- 29.94 in1013.9 mb - 0.00 in0.0 mm 0.00 in0.0 mm
08:25 AM 68.7°F20.4°C 61.9°F16.6°C 79% Calm Calm -- 29.94 in1013.9 mb - 0.00 in0.0 mm 0.00 in0.0 mm
08:20 AM 68.4°F20.2°C 61.2°F16.2°C 78% Calm Calm -- 29.94 in1013.9 mb - 0.00 in0.0 mm 0.00 in0.0 mm
08:15 AM 67.9°F19.9°C 60.8°F16.0°C 78% Calm Calm -- 29.93 in1013.5 mb - 0.00 in0.0 mm 0.00 in0.0 mm
08:10 AM 67.3°F19.6°C 60.2°F15.7°C 78% Calm Calm -- 29.93 in1013.5 mb - 0.00 in0.0 mm 0.00 in0.0 mm
08:00 AM 66.6°F19.2°C 59.5°F15.3°C 78% Calm Calm -- 29.94 in1013.9 mb - 0.00 in0.0 mm 0.00 in0.0 mm
07:55 AM 66.2°F19.0°C 59.2°F15.1°C 78% Calm Calm -- 29.93 in1013.5 mb - 0.00 in0.0 mm 0.00 in0.0 mm
07:50 AM 65.8°F18.8°C 58.7°F14.8°C 78% Calm Calm -- 29.93 in1013.5 mb - 0.00 in0.0 mm 0.00 in0.0 mm
07:45 AM 65.5°F18.6°C 58.5°F14.7°C 78% Calm Calm -- 29.93 in1013.5 mb - 0.00 in0.0 mm 0.00 in0.0 mm
07:40 AM 65.2°F18.4°C 58.2°F14.6°C 78% Calm Calm -- 29.93 in1013.5 mb - 0.00 in0.0 mm 0.00 in0.0 mm
07:35 AM 65.1°F18.4°C 58.0°F14.4°C 78% Calm Calm -- 29.93 in1013.5 mb - 0.00 in0.0 mm 0.00 in0.0 mm
07:30 AM 64.8°F18.2°C 58.1°F14.5°C 79% Calm Calm -- 29.93 in1013.5 mb - 0.00 in0.0 mm 0.00 in0.0 mm
07:25 AM 64.7°F18.2°C 57.7°F14.3°C 78% Calm Calm -- 29.93 in1013.5 mb - 0.00 in0.0 mm 0.00 in0.0 mm
07:20 AM 64.6°F18.1°C 57.9°F14.4°C 79% Calm Calm -- 29.93 in1013.5 mb - 0.00 in0.0 mm 0.00 in0.0 mm
07:15 AM 64.4°F18.0°C 57.7°F14.3°C 79% Calm Calm -- 29.93 in1013.5 mb - 0.00 in0.0 mm 0.00 in0.0 mm
07:10 AM 64.4°F18.0°C 57.7°F14.3°C 79% Calm Calm -- 29.93 in1013.5 mb - 0.00 in0.0 mm 0.00 in0.0 mm
07:00 AM 64.5°F18.1°C 57.8°F14.3°C 79% Calm Calm -- 29.93 in1013.5 mb - 0.00 in0.0 mm 0.00 in0.0 mm
06:55 AM 64.5°F18.1°C 57.8°F14.3°C 79% Calm Calm -- 29.93 in1013.5 mb - 0.00 in0.0 mm 0.00 in0.0 mm
06:50 AM 64.5°F18.1°C 58.2°F14.6°C 80% Calm Calm -- 29.92 in1013.2 mb - 0.00 in0.0 mm 0.00 in0.0 mm
06:45 AM 64.6°F18.1°C 58.3°F14.6°C 80% Calm Calm -- 29.92 in1013.2 mb - 0.00 in0.0 mm 0.00 in0.0 mm
06:40 AM 64.7°F18.2°C 58.4°F14.7°C 80% Calm Calm -- 29.92 in1013.2 mb - 0.00 in0.0 mm 0.00 in0.0 mm
06:35 AM 64.7°F18.2°C 58.4°F14.7°C 80% Calm Calm -- 29.92 in1013.2 mb - 0.00 in0.0 mm 0.00 in0.0 mm
06:30 AM 64.7°F18.2°C 58.4°F14.7°C 80% Calm Calm -- 29.92 in1013.2 mb - 0.00 in0.0 mm 0.00 in0.0 mm
06:25 AM 64.9°F18.3°C 58.6°F14.8°C 80% Calm Calm -- 29.92 in1013.2 mb - 0.00 in0.0 mm 0.00 in0.0 mm
06:20 AM 65.1°F18.4°C 58.4°F14.7°C 79% Calm Calm -- 29.92 in1013.2 mb - 0.00 in0.0 mm 0.00 in0.0 mm
06:15 AM 65.2°F18.4°C 58.5°F14.7°C 79% Calm Calm -- 29.91 in1012.9 mb - 0.00 in0.0 mm 0.00 in0.0 mm
06:10 AM 65.2°F18.4°C 58.5°F14.7°C 79% Calm Calm -- 29.91 in1012.9 mb - 0.00 in0.0 mm 0.00 in0.0 mm
06:00 AM 65.1°F18.4°C 58.8°F14.9°C 80% Calm Calm -- 29.91 in1012.9 mb - 0.00 in0.0 mm 0.00 in0.0 mm
05:55 AM 65.0°F18.3°C 58.7°F14.8°C 80% Calm Calm -- 29.91 in1012.9 mb - 0.00 in0.0 mm 0.00 in0.0 mm
05:50 AM 65.0°F18.3°C 58.3°F14.6°C 79% Calm Calm -- 29.91 in1012.9 mb - 0.00 in0.0 mm 0.00 in0.0 mm
05:45 AM 65.1°F18.4°C 58.4°F14.7°C 79% Calm Calm -- 29.91 in1012.9 mb - 0.00 in0.0 mm 0.00 in0.0 mm
05:40 AM 65.2°F18.4°C 58.5°F14.7°C 79% Calm Calm -- 29.91 in1012.9 mb - 0.00 in0.0 mm 0.00 in0.0 mm
05:35 AM 65.4°F18.6°C 58.7°F14.8°C 79% Calm Calm -- 29.91 in1012.9 mb - 0.00 in0.0 mm 0.00 in0.0 mm
05:30 AM 65.4°F18.6°C 58.7°F14.8°C 79% Calm Calm -- 29.91 in1012.9 mb - 0.00 in0.0 mm 0.00 in0.0 mm
05:25 AM 65.4°F18.6°C 58.4°F14.7°C 78% Calm Calm -- 29.91 in1012.9 mb - 0.00 in0.0 mm 0.00 in0.0 mm
05:20 AM 65.4°F18.6°C 58.4°F14.7°C 78% Calm Calm -- 29.91 in1012.9 mb - 0.00 in0.0 mm 0.00 in0.0 mm
05:15 AM 65.4°F18.6°C 58.7°F14.8°C 79% Calm Calm -- 29.91 in1012.9 mb - 0.00 in0.0 mm 0.00 in0.0 mm
05:10 AM 65.6°F18.7°C 58.6°F14.8°C 78% Calm Calm -- 29.91 in1012.9 mb - 0.00 in0.0 mm 0.00 in0.0 mm
05:00 AM 65.7°F18.7°C 58.7°F14.8°C 78% Calm Calm -- 29.91 in1012.9 mb - 0.00 in0.0 mm 0.00 in0.0 mm
04:55 AM 65.7°F18.7°C 58.7°F14.8°C 78% Calm Calm -- 29.91 in1012.9 mb - 0.00 in0.0 mm 0.00 in0.0 mm
04:50 AM 65.7°F18.7°C 58.3°F14.6°C 77% Calm Calm -- 29.90 in1012.5 mb - 0.00 in0.0 mm 0.00 in0.0 mm
04:45 AM 65.9°F18.8°C 58.5°F14.7°C 77% Calm Calm -- 29.90 in1012.5 mb - 0.00 in0.0 mm 0.00 in0.0 mm
04:40 AM 65.9°F18.8°C 58.5°F14.7°C 77% Calm Calm -- 29.90 in1012.5 mb - 0.00 in0.0 mm 0.00 in0.0 mm
04:35 AM 65.9°F18.8°C 58.5°F14.7°C 77% Calm Calm -- 29.90 in1012.5 mb - 0.00 in0.0 mm 0.00 in0.0 mm
04:30 AM 65.9°F18.8°C 58.5°F14.7°C 77% Calm Calm -- 29.90 in1012.5 mb - 0.00 in0.0 mm 0.00 in0.0 mm
04:25 AM 66.1°F18.9°C 58.3°F14.6°C 76% Calm Calm -- 29.90 in1012.5 mb - 0.00 in0.0 mm 0.00 in0.0 mm
04:20 AM 66.2°F19.0°C 58.4°F14.7°C 76% Calm Calm -- 29.90 in1012.5 mb - 0.00 in0.0 mm 0.00 in0.0 mm
04:15 AM 66.3°F19.1°C 58.5°F14.7°C 76% Calm Calm -- 29.90 in1012.5 mb - 0.00 in0.0 mm 0.00 in0.0 mm
04:10 AM 66.3°F19.1°C 58.1°F14.5°C 75% Calm Calm -- 29.90 in1012.5 mb - 0.00 in0.0 mm 0.00 in0.0 mm
04:00 AM 66.4°F19.1°C 58.2°F14.6°C 75% Calm Calm -- 29.90 in1012.5 mb - 0.00 in0.0 mm 0.00 in0.0 mm
03:55 AM 66.5°F19.2°C 58.3°F14.6°C 75% Calm Calm -- 29.90 in1012.5 mb - 0.00 in0.0 mm 0.00 in0.0 mm
03:50 AM 66.5°F19.2°C 58.3°F14.6°C 75% Calm Calm -- 29.90 in1012.5 mb - 0.00 in0.0 mm 0.00 in0.0 mm
03:45 AM 66.6°F19.2°C 58.1°F14.5°C 74% Calm Calm -- 29.90 in1012.5 mb - 0.00 in0.0 mm 0.00 in0.0 mm
03:40 AM 66.7°F19.3°C 58.1°F14.5°C 74% Calm Calm -- 29.90 in1012.5 mb - 0.00 in0.0 mm 0.00 in0.0 mm
03:35 AM 66.7°F19.3°C 58.5°F14.7°C 75% Calm Calm -- 29.90 in1012.5 mb - 0.00 in0.0 mm 0.00 in0.0 mm
03:30 AM 66.8°F19.3°C 58.2°F14.6°C 74% Calm Calm -- 29.90 in1012.5 mb - 0.00 in0.0 mm 0.00 in0.0 mm
03:25 AM 66.9°F19.4°C 58.3°F14.6°C 74% Calm Calm -- 29.90 in1012.5 mb - 0.00 in0.0 mm 0.00 in0.0 mm
03:20 AM 67.0°F19.4°C 58.4°F14.7°C 74% Calm Calm -- 29.90 in1012.5 mb - 0.00 in0.0 mm 0.00 in0.0 mm
03:15 AM 67.2°F19.6°C 58.6°F14.8°C 74% Calm Calm -- 29.90 in1012.5 mb - 0.00 in0.0 mm 0.00 in0.0 mm
03:10 AM 67.4°F19.7°C 58.8°F14.9°C 74% Calm Calm -- 29.90 in1012.5 mb - 0.00 in0.0 mm 0.00 in0.0 mm
03:00 AM 67.5°F19.7°C 58.9°F14.9°C 74% Calm Calm -- 29.90 in1012.5 mb - 0.00 in0.0 mm 0.00 in0.0 mm
02:55 AM 67.5°F19.7°C 58.9°F14.9°C 74% Calm Calm -- 29.89 in1012.2 mb - 0.00 in0.0 mm 0.00 in0.0 mm
02:50 AM 67.5°F19.7°C 58.9°F14.9°C 74% Calm Calm -- 29.90 in1012.5 mb - 0.00 in0.0 mm 0.00 in0.0 mm
02:45 AM 67.5°F19.7°C 58.9°F14.9°C 74% Calm Calm -- 29.89 in1012.2 mb - 0.00 in0.0 mm 0.00 in0.0 mm
02:40 AM 67.5°F19.7°C 59.3°F15.2°C 75% Calm Calm -- 29.89 in1012.2 mb - 0.00 in0.0 mm 0.00 in0.0 mm
02:35 AM 67.7°F19.8°C 59.5°F15.3°C 75% Calm Calm -- 29.89 in1012.2 mb - 0.00 in0.0 mm 0.00 in0.0 mm
02:30 AM 67.7°F19.8°C 59.9°F15.5°C 76% Calm Calm -- 29.89 in1012.2 mb - 0.00 in0.0 mm 0.00 in0.0 mm
02:25 AM 67.8°F19.9°C 60.3°F15.7°C 77% Calm Calm -- 29.89 in1012.2 mb - 0.00 in0.0 mm 0.00 in0.0 mm
02:20 AM 68.0°F20.0°C 60.6°F15.9°C 77% Calm Calm -- 29.89 in1012.2 mb - 0.00 in0.0 mm 0.00 in0.0 mm
02:15 AM 68.1°F20.1°C 61.0°F16.1°C 78% Calm Calm -- 29.89 in1012.2 mb - 0.00 in0.0 mm 0.00 in0.0 mm
02:10 AM 68.2°F20.1°C 61.1°F16.2°C 78% Calm Calm -- 29.89 in1012.2 mb - 0.00 in0.0 mm 0.00 in0.0 mm
02:00 AM 68.4°F20.2°C 61.6°F16.4°C 79% Calm Calm -- 29.89 in1012.2 mb - 0.00 in0.0 mm 0.00 in0.0 mm
01:55 AM 68.5°F20.3°C 62.1°F16.7°C 80% Calm Calm -- 29.89 in1012.2 mb - 0.00 in0.0 mm 0.00 in0.0 mm
01:50 AM 68.5°F20.3°C 62.1°F16.7°C 80% Calm Calm -- 29.89 in1012.2 mb - 0.00 in0.0 mm 0.00 in0.0 mm
01:45 AM 68.6°F20.3°C 62.2°F16.8°C 80% Calm Calm -- 29.89 in1012.2 mb - 0.00 in0.0 mm 0.00 in0.0 mm
01:40 AM 68.6°F20.3°C 62.2°F16.8°C 80% Calm Calm -- 29.90 in1012.5 mb - 0.00 in0.0 mm 0.00 in0.0 mm
01:35 AM 68.9°F20.5°C 62.4°F16.9°C 80% Calm Calm -- 29.90 in1012.5 mb - 0.00 in0.0 mm 0.00 in0.0 mm
01:30 AM 68.9°F20.5°C 62.5°F16.9°C 80% Calm Calm -- 29.90 in1012.5 mb - 0.00 in0.0 mm 0.00 in0.0 mm
01:25 AM 68.9°F20.5°C 62.5°F16.9°C 80% Calm Calm -- 29.90 in1012.5 mb - 0.00 in0.0 mm 0.00 in0.0 mm
01:20 AM 69.0°F20.6°C 62.6°F17.0°C 80% Calm Calm -- 29.90 in1012.5 mb - 0.00 in0.0 mm 0.00 in0.0 mm
01:15 AM 69.1°F20.6°C 62.6°F17.0°C 80% Calm Calm -- 29.90 in1012.5 mb - 0.00 in0.0 mm 0.00 in0.0 mm
01:10 AM 69.2°F20.7°C 62.8°F17.1°C 80% Calm Calm -- 29.90 in1012.5 mb - 0.00 in0.0 mm 0.00 in0.0 mm
01:00 AM 69.4°F20.8°C 63.0°F17.2°C 80% Calm Calm -- 29.91 in1012.9 mb - 0.00 in0.0 mm 0.00 in0.0 mm
12:55 AM 69.5°F20.8°C 63.1°F17.3°C 80% Calm Calm -- 29.91 in1012.9 mb - 0.00 in0.0 mm 0.00 in0.0 mm
12:50 AM 69.7°F20.9°C 62.9°F17.2°C 79% Calm Calm -- 29.91 in1012.9 mb - 0.00 in0.0 mm 0.00 in0.0 mm
12:45 AM 69.7°F20.9°C 63.3°F17.4°C 80% Calm Calm -- 29.91 in1012.9 mb - 0.00 in0.0 mm 0.00 in0.0 mm
12:40 AM 69.8°F21.0°C 63.3°F17.4°C 80% Calm Calm -- 29.91 in1012.9 mb - 0.00 in0.0 mm 0.00 in0.0 mm
12:35 AM 69.9°F21.1°C 63.4°F17.4°C 80% Calm Calm -- 29.91 in1012.9 mb - 0.00 in0.0 mm 0.00 in0.0 mm
12:30 AM 70.0°F21.1°C 63.5°F17.5°C 80% Calm Calm -- 29.90 in1012.5 mb - 0.00 in0.0 mm 0.00 in0.0 mm
12:25 AM 70.2°F21.2°C 63.4°F17.4°C 79% Calm Calm -- 29.90 in1012.5 mb - 0.00 in0.0 mm 0.00 in0.0 mm
12:20 AM 70.3°F21.3°C 63.5°F17.5°C 79% Calm Calm -- 29.90 in1012.5 mb - 0.00 in0.0 mm 0.00 in0.0 mm
12:15 AM 70.3°F21.3°C 63.5°F17.5°C 79% Calm Calm -- 29.90 in1012.5 mb - 0.00 in0.0 mm 0.00 in0.0 mm
12:10 AM 70.4°F21.3°C 63.6°F17.6°C 79% Calm Calm -- 29.90 in1012.5 mb - 0.00 in0.0 mm 0.00 in0.0 mm
12:00 AM 70.6°F21.4°C 63.8°F17.7°C 79% Calm Calm -- 29.90 in1012.5 mb - 0.00 in0.0 mm 0.00 in0.0 mm